Una, Brazil
Current Conditions -  °F | °C
As of 7:00 AM on Friday 19 Dec 2014 (Local Time) from SBIL Reporting Station
Rain Showers Rain Showers  
Wind Chill: 73°   Ceiling: 7000
Heat Index: 73°   Visibility: 5mi
Dew Point: 72°   Wind: 5mph
Humidity: 94%   Direction: 260°W
Pressure: 29.88"   Gusts: NA
Location:  15.29°S, 39.08°W
Report Text: SBIL 191000Z 26004KT 8000 VCSH SCT015 SCT040 BKN070 23/22 Q1012
Loading
Personal Weather Stations






























Interactive Weather Map New forecast layout! Learn more

10-Day Weather Forecast

Advertisements
Track Severe Weather on mobile